Eskridge, Kansas
Current Conditions -  °F | °C
As of 2:53 PM on Tuesday 25 Nov 2014 (Local Time) from KFOE Reporting Station
Clear Clear  
Wind Chill:   Ceiling: Unl
Heat Index:   Visibility: 10mi
Dew Point: -6°   Wind: 12mph
Humidity: 36%   Direction: 200°SSW
Pressure: 30.08"   Gusts: NA
Location:  38.86°N, 96.11°W
Report Text: KFOE 252053Z 20010KT 10SM CLR 08/M06 A3008 RMK AO2 SLP195 T00831061 56029
Loading
Personal Weather Stations






























Interactive Weather Map New forecast layout! Learn more

10-Day Weather Forecast

Advertisements
Track Severe Weather on mobile